createdAt,value
2022-10-13T00:00:47.960Z,74.53
2022-10-13T00:01:29.952Z,73.24
2022-10-13T00:02:03.955Z,72.49
2022-10-13T00:02:37.612Z,72.24
2022-10-13T00:03:18.909Z,72.32
2022-10-13T00:03:53.937Z,71.53
2022-10-13T00:04:27.700Z,70.00
2022-10-13T00:05:08.874Z,73.81
2022-10-13T00:05:48.982Z,69.79
2022-10-13T00:06:25.736Z,68.05
2022-10-13T00:07:05.913Z,69.09
2022-10-13T00:07:39.954Z,70.56
2022-10-13T00:08:18.833Z,69.80
2022-10-13T00:09:00.877Z,71.36
2022-10-13T00:09:34.944Z,68.43
2022-10-13T00:10:08.904Z,69.70
2022-10-13T00:10:48.938Z,68.71
2022-10-13T00:11:30.208Z,68.16
2022-10-13T00:12:03.736Z,67.93
2022-10-13T00:12:45.910Z,67.07
2022-10-13T00:13:19.988Z,63.34
2022-10-13T00:13:57.925Z,64.80
2022-10-13T00:14:38.860Z,66.05
2022-10-13T00:15:14.969Z,64.56
2022-10-13T00:15:49.102Z,62.00
2022-10-13T00:16:30.061Z,61.25
2022-10-13T00:17:03.968Z,61.28
2022-10-13T00:17:37.662Z,58.95
2022-10-13T00:18:18.888Z,60.81
2022-10-13T00:18:52.975Z,60.26
2022-10-13T00:19:27.736Z,59.34
2022-10-13T00:20:08.874Z,57.24
2022-10-13T00:20:47.932Z,55.79
2022-10-13T00:21:26.386Z,54.76
2022-10-13T00:22:06.859Z,55.58
2022-10-13T00:22:40.933Z,57.97
2022-10-13T00:23:15.633Z,57.94
2022-10-13T00:23:57.877Z,58.79
2022-10-13T00:24:31.970Z,59.72
2022-10-13T00:25:06.222Z,61.28
2022-10-13T00:25:50.860Z,58.66
2022-10-13T00:26:25.960Z,55.41
2022-10-13T00:26:59.594Z,56.78
2022-10-13T00:27:39.862Z,57.71
2022-10-13T00:28:13.995Z,58.63
2022-10-13T00:28:52.250Z,55.92
2022-10-13T00:29:33.865Z,55.79
2022-10-13T00:30:07.908Z,56.10
2022-10-13T00:30:42.077Z,58.85
2022-10-13T00:31:36.824Z,56.97
2022-10-13T00:32:10.941Z,54.75
2022-10-13T00:32:44.572Z,53.30
2022-10-13T00:33:24.861Z,55.22
2022-10-13T00:33:58.971Z,52.80
2022-10-13T00:34:32.561Z,49.28
2022-10-13T00:35:13.878Z,51.16
2022-10-13T00:35:50.924Z,53.39
2022-10-13T00:36:25.361Z,51.54
2022-10-13T00:37:04.845Z,49.61
2022-10-13T00:37:38.923Z,50.58
2022-10-13T00:38:13.218Z,50.29
2022-10-13T00:38:53.854Z,49.36
2022-10-13T00:39:27.952Z,49.81
2022-10-13T00:40:01.698Z,50.06
2022-10-13T00:41:00.864Z,48.47
2022-10-13T00:41:35.154Z,49.51
2022-10-13T00:42:14.801Z,49.75
2022-10-13T00:42:54.832Z,48.36
2022-10-13T00:43:37.965Z,49.05
2022-10-13T00:45:04.322Z,50.35
2022-10-13T00:45:44.836Z,49.04
2022-10-13T00:46:25.874Z,47.54
2022-10-13T00:46:59.566Z,49.54
2022-10-13T00:47:58.854Z,50.58
2022-10-13T00:48:32.563Z,48.69
2022-10-13T00:49:26.828Z,47.59
2022-10-13T00:50:01.447Z,48.17
2022-10-13T00:50:55.812Z,50.28
2022-10-13T00:51:39.941Z,50.50
2022-10-13T00:52:21.120Z,47.21
2022-10-13T00:53:02.859Z,48.45
2022-10-13T00:53:44.928Z,49.01
2022-10-13T00:54:28.816Z,49.88
2022-10-13T00:55:10.890Z,48.15
2022-10-13T00:55:52.826Z,47.64
2022-10-13T00:56:34.892Z,48.95
2022-10-13T00:57:15.836Z,46.08
2022-10-13T00:58:02.694Z,47.10
2022-10-13T00:58:45.828Z,47.60
2022-10-13T00:59:31.940Z,45.79
2022-10-13T01:00:12.838Z,43.61
2022-10-13T01:00:56.925Z,44.26
2022-10-13T01:01:38.822Z,45.60
2022-10-13T01:02:25.840Z,45.86
2022-10-13T01:02:59.632Z,48.79
2022-10-13T01:03:47.816Z,46.42
2022-10-13T01:04:25.441Z,43.75
2022-10-13T01:05:13.828Z,44.20
2022-10-13T01:05:48.921Z,42.45
2022-10-13T01:06:35.820Z,44.05
2022-10-13T01:07:09.704Z,44.56
2022-10-13T01:07:50.834Z,44.15
2022-10-13T01:08:27.195Z,44.29
2022-10-13T01:09:01.528Z,43.36
2022-10-13T01:09:44.806Z,40.47
2022-10-13T01:10:24.844Z,41.41
2022-10-13T01:11:20.238Z,41.00
2022-10-13T01:12:28.816Z,41.86
2022-10-13T01:13:32.834Z,44.28
2022-10-13T01:14:06.389Z,41.72
2022-10-13T01:15:09.796Z,41.44
2022-10-13T01:16:00.305Z,42.42
2022-10-13T01:16:56.801Z,43.33
2022-10-13T01:18:05.765Z,42.85
2022-10-13T01:19:07.837Z,43.83
2022-10-13T01:20:06.313Z,42.90
2022-10-13T01:21:11.805Z,42.19
2022-10-13T01:22:14.250Z,41.06
2022-10-13T01:23:23.789Z,40.60
2022-10-13T01:24:17.829Z,42.00
2022-10-13T01:25:42.880Z,40.58
2022-10-13T01:27:12.781Z,41.47
2022-10-13T01:28:40.893Z,40.05
2022-10-13T01:29:34.809Z,38.47
2022-10-13T01:30:25.901Z,38.63
2022-10-13T01:31:18.839Z,38.60
2022-10-13T01:32:26.924Z,38.38
2022-10-13T01:33:30.792Z,38.92
2022-10-13T01:34:27.844Z,38.95
2022-10-13T01:35:24.809Z,38.13
2022-10-13T01:36:48.884Z,38.47
2022-10-13T01:37:55.798Z,37.71
2022-10-13T01:38:54.913Z,37.55
2022-10-13T01:40:30.813Z,39.24
2022-10-13T01:41:37.913Z,38.76
2022-10-13T01:42:33.766Z,38.08
2022-10-13T01:43:24.841Z,38.30
2022-10-13T01:44:24.789Z,36.38
2022-10-13T01:45:07.873Z,37.84
2022-10-13T01:46:07.791Z,37.55
2022-10-13T01:46:49.843Z,38.17
2022-10-13T01:47:30.764Z,38.38
2022-10-13T01:48:12.844Z,38.96
2022-10-13T01:48:52.769Z,38.91
2022-10-13T01:49:37.834Z,38.86
2022-10-13T01:50:17.778Z,35.49
2022-10-13T01:51:00.003Z,36.42
2022-10-13T01:51:40.902Z,37.36
2022-10-13T01:52:24.879Z,36.47
2022-10-13T01:53:07.766Z,39.11
2022-10-13T01:53:49.859Z,39.75
2022-10-13T01:54:29.771Z,38.90
2022-10-13T01:55:18.835Z,37.90
2022-10-13T01:56:05.752Z,38.05
2022-10-13T01:56:52.809Z,37.91
2022-10-13T01:57:42.621Z,38.60
2022-10-13T01:58:29.762Z,36.91
2022-10-13T01:59:07.416Z,36.25
2022-10-13T01:59:54.754Z,38.00
2022-10-13T02:00:34.291Z,40.63
2022-10-13T02:02:11.781Z,39.08
2022-10-13T02:03:15.258Z,38.97
2022-10-13T02:04:12.792Z,38.67
2022-10-13T02:05:09.968Z,37.61
2022-10-13T02:06:03.752Z,35.06
2022-10-13T02:06:52.053Z,35.39
2022-10-13T02:07:53.779Z,36.54
2022-10-13T02:09:02.858Z,37.16
2022-10-13T02:09:54.813Z,35.08
2022-10-13T02:10:41.754Z,35.45
2022-10-13T02:11:27.824Z,35.00
2022-10-13T02:12:23.754Z,37.96
2022-10-13T02:13:17.785Z,37.42
2022-10-13T02:13:54.133Z,37.24
2022-10-13T02:14:43.733Z,35.99
2022-10-13T02:15:22.672Z,36.29
2022-10-13T02:16:12.759Z,37.45
2022-10-13T02:16:47.589Z,36.59
2022-10-13T02:17:35.758Z,37.84
2022-10-13T02:18:12.892Z,35.06
2022-10-13T02:18:53.769Z,36.08
2022-10-13T02:19:27.808Z,36.42
2022-10-13T02:20:01.555Z,39.95
2022-10-13T02:20:42.748Z,39.59
2022-10-13T02:21:16.797Z,38.64
2022-10-13T02:21:51.993Z,39.85
2022-10-13T02:22:37.763Z,39.92
2022-10-13T02:23:18.848Z,39.05
2022-10-13T02:23:52.477Z,38.78
2022-10-13T02:24:33.765Z,39.14
2022-10-13T02:25:07.801Z,39.30
2022-10-13T02:25:41.893Z,39.96
2022-10-13T02:26:22.730Z,40.09
2022-10-13T02:26:57.804Z,40.44
2022-10-13T02:27:31.469Z,38.88
2022-10-13T02:28:12.796Z,38.19
2022-10-13T02:28:46.831Z,41.03
2022-10-13T02:29:20.860Z,40.70
2022-10-13T02:30:03.760Z,39.15
2022-10-13T02:30:39.150Z,40.41
2022-10-13T02:31:13.461Z,40.28
2022-10-13T02:31:54.734Z,40.34
2022-10-13T02:32:29.795Z,39.41
2022-10-13T02:33:04.185Z,39.84
2022-10-13T02:33:43.712Z,39.88
2022-10-13T02:34:18.807Z,40.24
2022-10-13T02:34:52.477Z,40.35
2022-10-13T02:35:33.770Z,38.26
2022-10-13T02:36:07.789Z,35.78
2022-10-13T02:36:41.796Z,37.17
2022-10-13T02:37:21.728Z,38.38
2022-10-13T02:37:55.806Z,38.99
2022-10-13T02:38:29.432Z,37.39
2022-10-13T02:39:11.711Z,35.17
2022-10-13T02:39:45.801Z,35.36
2022-10-13T02:40:19.694Z,36.44
2022-10-13T02:41:01.741Z,37.96
2022-10-13T02:41:35.789Z,38.33
2022-10-13T02:42:09.570Z,37.16
2022-10-13T02:42:50.734Z,36.78
2022-10-13T02:43:24.817Z,36.44
2022-10-13T02:43:58.427Z,35.96
2022-10-13T02:44:39.710Z,36.47
2022-10-13T02:45:14.926Z,35.04
2022-10-13T02:45:48.420Z,34.51
2022-10-13T02:46:29.733Z,36.06
2022-10-13T02:47:03.773Z,36.33
2022-10-13T02:47:37.559Z,37.40
2022-10-13T02:48:17.707Z,37.50
2022-10-13T02:48:51.778Z,36.61
2022-10-13T02:49:25.453Z,36.56
2022-10-13T02:50:06.724Z,36.71
2022-10-13T02:50:40.810Z,37.14
2022-10-13T02:51:14.629Z,36.13
2022-10-13T02:51:55.806Z,35.20
2022-10-13T02:52:29.783Z,35.65
2022-10-13T02:53:03.469Z,36.39
2022-10-13T02:53:43.692Z,36.20
2022-10-13T02:54:17.778Z,33.80
2022-10-13T02:54:52.147Z,33.86
2022-10-13T02:55:31.708Z,33.88
2022-10-13T02:56:05.789Z,31.42
2022-10-13T02:56:39.462Z,32.22
2022-10-13T02:57:20.733Z,31.88
2022-10-13T02:57:54.773Z,30.50
2022-10-13T02:58:28.524Z,32.71
2022-10-13T02:59:08.697Z,35.29
2022-10-13T02:59:42.772Z,32.85
2022-10-13T03:00:17.096Z,31.84
2022-10-13T03:00:57.698Z,31.49
2022-10-13T03:01:31.797Z,31.51
2022-10-13T03:02:05.400Z,33.26
2022-10-13T03:02:46.733Z,33.00
2022-10-13T03:03:20.852Z,32.03
2022-10-13T03:03:54.441Z,33.34
2022-10-13T03:04:35.696Z,33.44
2022-10-13T03:05:09.764Z,32.88
2022-10-13T03:05:44.984Z,32.99
2022-10-13T03:06:25.693Z,32.83
2022-10-13T03:06:59.763Z,32.89
2022-10-13T03:07:33.417Z,33.26
2022-10-13T03:08:14.730Z,34.67
2022-10-13T03:08:48.789Z,33.83
2022-10-13T03:09:22.484Z,32.05
2022-10-13T03:10:02.710Z,32.50
2022-10-13T03:10:43.775Z,34.34
2022-10-13T03:11:23.697Z,32.54
2022-10-13T03:12:03.754Z,33.16
2022-10-13T03:12:43.691Z,31.59
2022-10-13T03:13:31.709Z,31.84
2022-10-13T03:14:05.453Z,33.65
2022-10-13T03:14:52.693Z,31.79
2022-10-13T03:15:26.447Z,32.66
2022-10-13T03:16:13.715Z,34.21
2022-10-13T03:16:47.402Z,34.49
2022-10-13T03:17:34.681Z,31.99
2022-10-13T03:18:08.401Z,31.64
2022-10-13T03:18:56.712Z,32.05
2022-10-13T03:19:30.707Z,33.19
2022-10-13T03:20:18.671Z,33.14
2022-10-13T03:20:58.279Z,32.79
2022-10-13T03:21:45.705Z,33.05
2022-10-13T03:22:19.629Z,33.39
2022-10-13T03:23:06.686Z,32.14
2022-10-13T03:23:40.475Z,31.67
2022-10-13T03:24:21.719Z,32.56
2022-10-13T03:24:55.795Z,32.05
2022-10-13T03:25:29.425Z,33.28
2022-10-13T03:26:10.678Z,31.98
2022-10-13T03:26:44.731Z,31.84
2022-10-13T03:27:18.454Z,31.64
2022-10-13T03:27:58.696Z,31.11
2022-10-13T03:28:32.889Z,31.59
2022-10-13T03:29:06.425Z,30.08
2022-10-13T03:29:47.723Z,32.40
2022-10-13T03:30:21.782Z,33.00
2022-10-13T03:31:07.160Z,31.44
2022-10-13T03:31:47.669Z,32.03
2022-10-13T03:32:22.238Z,30.79
2022-10-13T03:32:56.410Z,32.85
2022-10-13T03:33:37.662Z,33.69
2022-10-13T03:34:11.849Z,30.91
2022-10-13T03:34:45.385Z,31.52
2022-10-13T03:35:26.712Z,32.06
2022-10-13T03:36:01.692Z,32.25
2022-10-13T03:36:35.469Z,34.25
2022-10-13T03:37:16.685Z,33.86
2022-10-13T03:37:50.749Z,34.31
2022-10-13T03:38:24.399Z,32.34
2022-10-13T03:39:04.653Z,31.31
2022-10-13T03:39:38.721Z,34.81
2022-10-13T03:40:12.698Z,35.69
2022-10-13T03:40:53.700Z,35.54
2022-10-13T03:41:27.788Z,38.01
2022-10-13T03:42:01.381Z,40.26
2022-10-13T03:42:47.674Z,38.20
2022-10-13T03:43:21.726Z,35.89
2022-10-13T03:43:55.412Z,34.00
2022-10-13T03:44:35.645Z,33.83
2022-10-13T03:45:10.733Z,35.64
2022-10-13T03:45:44.398Z,36.39
2022-10-13T03:46:25.706Z,34.96
2022-10-13T03:46:59.877Z,33.28
2022-10-13T03:47:36.659Z,34.19
2022-10-13T03:48:16.666Z,37.71
2022-10-13T03:48:50.762Z,36.34
2022-10-13T03:49:24.625Z,34.35
2022-10-13T03:50:04.656Z,36.30
2022-10-13T03:50:38.727Z,37.59
2022-10-13T03:51:17.487Z,35.55
2022-10-13T03:51:58.741Z,33.06
2022-10-13T03:52:33.038Z,33.30
2022-10-13T03:53:08.128Z,35.61
2022-10-13T03:53:47.725Z,36.74
2022-10-13T03:54:21.780Z,34.92
2022-10-13T03:54:55.393Z,35.92
2022-10-13T03:55:35.649Z,36.72
2022-10-13T03:56:21.742Z,38.05
2022-10-13T03:57:02.669Z,36.21
2022-10-13T03:57:42.767Z,36.70
2022-10-13T03:58:23.643Z,36.25
2022-10-13T03:59:06.705Z,36.95
2022-10-13T03:59:50.663Z,40.78
2022-10-13T04:00:30.739Z,42.92
2022-10-13T04:01:12.634Z,42.33
2022-10-13T04:01:52.752Z,41.06
2022-10-13T04:02:33.862Z,39.81
2022-10-13T04:03:13.727Z,41.03
2022-10-13T04:03:54.623Z,42.56
2022-10-13T04:04:35.247Z,42.89
2022-10-13T04:05:16.644Z,42.59
2022-10-13T04:06:14.658Z,44.63
2022-10-13T04:07:08.665Z,43.61
2022-10-13T04:07:55.656Z,45.26
2022-10-13T04:08:29.777Z,46.95
2022-10-13T04:09:16.684Z,46.31
2022-10-13T04:09:50.701Z,46.38
2022-10-13T04:10:37.629Z,43.97
2022-10-13T04:11:15.796Z,42.76
2022-10-13T04:12:02.620Z,42.16
2022-10-13T04:12:36.884Z,42.01
2022-10-13T04:13:17.660Z,39.31
2022-10-13T04:13:58.833Z,38.56
2022-10-13T04:14:39.627Z,38.16
2022-10-13T04:15:19.700Z,36.74
2022-10-13T04:16:00.628Z,36.29
2022-10-13T04:16:40.811Z,42.45
2022-10-13T04:17:20.617Z,45.59
2022-10-13T04:18:00.694Z,42.42
2022-10-13T04:18:44.627Z,41.86
2022-10-13T04:19:25.740Z,43.54
2022-10-13T04:20:05.663Z,44.39
2022-10-13T04:20:46.935Z,48.64
2022-10-13T04:21:27.645Z,53.33
2022-10-13T04:22:07.693Z,58.45
2022-10-13T04:22:47.633Z,61.08
2022-10-13T04:23:27.692Z,58.13
2022-10-13T04:24:09.632Z,58.36
2022-10-13T04:24:49.752Z,57.09
2022-10-13T04:25:29.630Z,61.11
2022-10-13T04:26:11.673Z,64.39
2022-10-13T04:26:52.636Z,62.46
2022-10-13T04:27:32.701Z,61.70
2022-10-13T04:28:13.726Z,61.21
2022-10-13T04:28:56.701Z,58.76
2022-10-13T04:29:37.629Z,62.16
2022-10-13T04:30:18.689Z,62.55
2022-10-13T04:30:59.620Z,60.44
2022-10-13T04:31:42.620Z,64.63
2022-10-13T04:32:22.808Z,65.25
2022-10-13T04:33:02.771Z,69.51
2022-10-13T04:33:42.614Z,75.35
2022-10-13T04:34:22.701Z,75.56
2022-10-13T04:35:03.642Z,73.69
2022-10-13T04:35:48.692Z,68.75
2022-10-13T04:36:29.619Z,69.18
2022-10-13T04:37:09.668Z,64.21
2022-10-13T04:37:50.616Z,58.08
2022-10-13T04:38:30.695Z,61.28
2022-10-13T04:39:11.675Z,58.56
2022-10-13T04:39:51.705Z,59.66
2022-10-13T04:40:33.652Z,60.41
2022-10-13T04:41:15.735Z,60.88
2022-10-13T04:41:56.614Z,61.84
2022-10-13T04:42:36.708Z,61.75
2022-10-13T04:43:16.611Z,62.96
2022-10-13T04:43:58.247Z,62.22
2022-10-13T04:44:38.574Z,58.58
2022-10-13T04:45:18.705Z,63.05
2022-10-13T04:45:59.650Z,60.78
2022-10-13T04:46:39.723Z,49.94
2022-10-13T04:47:19.611Z,46.28
2022-10-13T04:47:59.694Z,46.28
2022-10-13T04:48:40.585Z,45.45
2022-10-13T04:49:20.708Z,47.39
2022-10-13T04:50:00.601Z,51.88
2022-10-13T04:50:40.681Z,53.59
2022-10-13T04:51:27.605Z,52.24
2022-10-13T04:52:07.697Z,55.00
2022-10-13T04:52:47.608Z,53.99
2022-10-13T04:53:29.324Z,52.67
2022-10-13T04:54:11.600Z,53.59
2022-10-13T04:54:51.666Z,55.83
2022-10-13T04:55:31.569Z,53.59
2022-10-13T04:56:15.673Z,47.38
2022-10-13T04:56:56.693Z,46.38
2022-10-13T04:57:36.663Z,44.39
2022-10-13T04:58:16.578Z,43.53
2022-10-13T04:58:56.719Z,43.61
2022-10-13T04:59:36.609Z,44.63
2022-10-13T05:00:17.718Z,44.96
2022-10-13T05:00:58.652Z,44.53
2022-10-13T05:01:39.730Z,44.61
2022-10-13T05:02:20.942Z,47.15
2022-10-13T05:03:01.645Z,44.96
2022-10-13T05:03:42.589Z,41.21
2022-10-13T05:04:22.689Z,40.64
2022-10-13T05:05:02.585Z,43.25
2022-10-13T05:05:43.175Z,43.81
2022-10-13T05:06:28.592Z,42.63
2022-10-13T05:07:24.059Z,44.20
2022-10-13T05:08:04.620Z,44.65
2022-10-13T05:08:44.661Z,43.04
2022-10-13T05:09:24.565Z,42.74
2022-10-13T05:10:04.712Z,41.61
2022-10-13T05:10:45.572Z,42.59
2022-10-13T05:11:26.613Z,40.50
2022-10-13T05:12:06.602Z,38.65
2022-10-13T05:12:46.674Z,36.59
2022-10-13T05:13:27.606Z,35.60
2022-10-13T05:14:08.677Z,35.83
2022-10-13T05:14:48.580Z,39.65
2022-10-13T05:15:28.701Z,41.61
2022-10-13T05:16:17.557Z,42.04
2022-10-13T05:16:57.755Z,43.69
2022-10-13T05:17:38.570Z,42.36
2022-10-13T05:18:18.670Z,40.04
2022-10-13T05:19:01.618Z,42.29
2022-10-13T05:19:41.648Z,44.40
2022-10-13T05:20:24.589Z,39.58
2022-10-13T05:21:14.642Z,35.99
2022-10-13T05:21:54.545Z,33.50
2022-10-13T05:22:35.761Z,35.40
2022-10-13T05:23:16.577Z,35.36
2022-10-13T05:23:57.661Z,35.84
2022-10-13T05:24:43.580Z,35.46
2022-10-13T05:25:24.688Z,36.09
2022-10-13T05:26:10.570Z,35.90
2022-10-13T05:26:50.637Z,35.42
2022-10-13T05:27:30.570Z,35.65
2022-10-13T05:28:12.708Z,35.20
2022-10-13T05:28:53.612Z,36.58
2022-10-13T05:29:33.632Z,34.11
2022-10-13T05:30:15.601Z,33.79
2022-10-13T05:30:55.633Z,34.78
2022-10-13T05:31:37.580Z,34.94
2022-10-13T05:32:17.947Z,34.42
2022-10-13T05:32:58.573Z,33.17
2022-10-13T05:33:38.704Z,33.50
2022-10-13T05:34:18.552Z,33.53
2022-10-13T05:34:58.666Z,33.75
2022-10-13T05:35:39.596Z,34.03
2022-10-13T05:36:34.696Z,36.15
2022-10-13T05:37:15.552Z,37.76
2022-10-13T05:37:55.665Z,36.97
2022-10-13T05:38:35.574Z,37.11
2022-10-13T05:39:16.641Z,43.58
2022-10-13T05:39:56.556Z,44.60
2022-10-13T05:40:36.672Z,44.19
2022-10-13T05:41:19.608Z,47.03
2022-10-13T05:41:59.603Z,48.42
2022-10-13T05:42:42.555Z,48.06
2022-10-13T05:43:22.610Z,53.83
2022-10-13T05:44:09.553Z,54.95
2022-10-13T05:44:49.697Z,52.88
2022-10-13T05:45:30.560Z,55.58
2022-10-13T05:46:11.652Z,60.31
2022-10-13T05:46:51.588Z,61.34
2022-10-13T05:47:31.636Z,58.14
2022-10-13T05:48:12.560Z,60.96
2022-10-13T05:48:52.611Z,60.67
2022-10-13T05:49:33.526Z,58.13
2022-10-13T05:50:14.612Z,58.56
2022-10-13T05:50:55.553Z,54.84
2022-10-13T05:51:59.598Z,53.13
2022-10-13T05:52:54.552Z,51.63
2022-10-13T05:53:55.446Z,48.16
2022-10-13T05:54:59.558Z,46.75
2022-10-13T05:55:53.587Z,45.49
2022-10-13T05:57:05.615Z,41.55
2022-10-13T05:58:03.541Z,38.53
2022-10-13T05:59:01.573Z,37.42
2022-10-13T06:00:15.535Z,37.96
2022-10-13T06:03:28.573Z,35.70
2022-10-13T06:04:05.619Z,34.20
2022-10-13T06:04:55.544Z,33.78
2022-10-13T06:05:32.767Z,37.46
2022-10-13T06:06:19.521Z,39.00
2022-10-13T06:06:54.654Z,39.14
2022-10-13T06:07:41.525Z,40.38
2022-10-13T06:08:16.585Z,38.95
2022-10-13T06:08:57.554Z,35.79
2022-10-13T06:09:42.625Z,36.96
2022-10-13T06:10:23.545Z,39.63
2022-10-13T06:11:03.628Z,37.83
2022-10-13T06:11:44.524Z,35.05
2022-10-13T06:12:24.584Z,34.91
2022-10-13T06:13:04.522Z,37.00
2022-10-13T06:13:44.625Z,38.25
2022-10-13T06:14:24.554Z,34.71
2022-10-13T06:15:04.611Z,36.08
2022-10-13T06:15:44.504Z,36.26
2022-10-13T06:16:24.624Z,34.41
2022-10-13T06:17:05.538Z,32.80
2022-10-13T06:17:46.601Z,31.45
2022-10-13T06:18:26.533Z,35.24
2022-10-13T06:19:06.632Z,36.94
2022-10-13T06:19:46.570Z,34.80
2022-10-13T06:20:27.480Z,33.64
2022-10-13T06:21:07.517Z,35.53
2022-10-13T06:21:48.710Z,35.65
2022-10-13T06:22:29.529Z,36.15
2022-10-13T06:23:09.599Z,35.47
2022-10-13T06:23:49.542Z,35.01
2022-10-13T06:24:29.954Z,35.60
2022-10-13T06:25:12.608Z,37.31
2022-10-13T06:25:59.699Z,35.36
2022-10-13T06:26:40.503Z,34.91
2022-10-13T06:27:20.616Z,34.49
2022-10-13T06:28:02.533Z,34.65
2022-10-13T06:28:46.281Z,33.34
2022-10-13T06:29:30.507Z,32.24
2022-10-13T06:30:11.720Z,31.89
2022-10-13T06:30:55.554Z,31.08
2022-10-13T06:31:35.589Z,32.00
2022-10-13T06:32:15.561Z,31.05
2022-10-13T06:32:56.095Z,30.04
2022-10-13T06:33:37.512Z,31.60
2022-10-13T06:34:17.572Z,30.40
2022-10-13T06:34:58.518Z,29.49
2022-10-13T06:35:38.629Z,29.06
2022-10-13T06:36:19.544Z,28.48
2022-10-13T06:36:59.648Z,29.13
2022-10-13T06:37:39.518Z,30.83
2022-10-13T06:38:19.687Z,32.51
2022-10-13T06:39:00.500Z,32.04
2022-10-13T06:39:40.578Z,31.76
2022-10-13T06:40:22.544Z,31.95
2022-10-13T06:41:11.129Z,30.19
2022-10-13T06:41:51.515Z,30.46
2022-10-13T06:42:34.789Z,28.20
2022-10-13T06:43:15.542Z,30.17
2022-10-13T06:43:56.595Z,31.50
2022-10-13T06:44:38.500Z,30.81
2022-10-13T06:45:19.711Z,30.14
2022-10-13T06:46:00.500Z,28.27
2022-10-13T06:46:40.596Z,28.94
2022-10-13T06:47:21.552Z,29.57
2022-10-13T06:48:02.829Z,31.35
2022-10-13T06:48:43.509Z,31.55
2022-10-13T06:49:23.725Z,29.98
2022-10-13T06:50:03.504Z,29.71
2022-10-13T06:50:43.688Z,29.96
2022-10-13T06:51:24.548Z,32.60
2022-10-13T06:52:04.597Z,29.48
2022-10-13T06:52:45.517Z,29.61
2022-10-13T06:53:25.581Z,32.65
2022-10-13T06:54:06.495Z,32.10
2022-10-13T06:54:46.800Z,31.04
2022-10-13T06:55:28.504Z,28.56
2022-10-13T06:56:11.590Z,30.60
2022-10-13T06:56:51.547Z,29.73
2022-10-13T06:57:31.664Z,28.89
2022-10-13T06:58:11.582Z,30.14
2022-10-13T06:58:51.607Z,31.06
2022-10-13T06:59:34.518Z,30.29
2022-10-13T07:00:16.717Z,30.09
2022-10-13T07:00:56.521Z,29.71
2022-10-13T07:01:40.623Z,30.08
2022-10-13T07:02:21.934Z,30.88
2022-10-13T07:03:02.604Z,29.58
2022-10-13T07:03:42.535Z,29.92
2022-10-13T07:04:23.098Z,30.11
2022-10-13T07:05:03.693Z,30.34
2022-10-13T07:05:44.620Z,28.69
2022-10-13T07:06:25.486Z,31.08
2022-10-13T07:07:05.674Z,30.24
2022-10-13T07:07:45.481Z,29.02
2022-10-13T07:08:27.571Z,29.71
2022-10-13T07:09:13.684Z,31.10
2022-10-13T07:09:53.618Z,29.82
2022-10-13T07:10:34.533Z,30.27
2022-10-13T07:11:20.738Z,31.94
2022-10-13T07:12:01.485Z,31.45
2022-10-13T07:12:41.875Z,29.64
2022-10-13T07:14:06.547Z,29.08
2022-10-13T07:14:47.512Z,29.50
2022-10-13T07:15:27.596Z,28.04
2022-10-13T07:16:12.492Z,27.46
2022-10-13T07:16:54.565Z,27.83
2022-10-13T07:17:34.488Z,29.08
2022-10-13T07:18:14.540Z,30.02
2022-10-13T07:18:55.450Z,27.49
2022-10-13T07:19:35.549Z,26.69
2022-10-13T07:20:16.521Z,30.16
2022-10-13T07:20:56.568Z,28.59
2022-10-13T07:21:36.470Z,28.21
2022-10-13T07:22:16.616Z,27.98
2022-10-13T07:22:59.872Z,27.46
2022-10-13T07:23:41.598Z,26.56
2022-10-13T07:24:21.513Z,27.94
2022-10-13T07:25:01.588Z,30.61
2022-10-13T07:25:42.469Z,28.74
2022-10-13T07:26:23.525Z,29.02
2022-10-13T07:27:07.670Z,26.05
2022-10-13T07:27:48.513Z,26.08
2022-10-13T07:28:32.514Z,30.08
2022-10-13T07:29:12.533Z,30.90
2022-10-13T07:29:52.445Z,29.09
2022-10-13T07:30:33.517Z,27.35
2022-10-13T07:31:24.467Z,29.51
2022-10-13T07:32:04.617Z,32.20
2022-10-13T07:32:48.443Z,30.19
2022-10-13T07:33:28.522Z,31.25
2022-10-13T07:34:11.416Z,31.67
2022-10-13T07:34:51.522Z,30.01
2022-10-13T07:35:32.440Z,31.13
2022-10-13T07:36:13.542Z,33.34
2022-10-13T07:36:53.509Z,32.13
2022-10-13T07:37:33.537Z,33.59
2022-10-13T07:38:15.464Z,31.55
2022-10-13T07:38:55.541Z,32.80
2022-10-13T07:39:35.430Z,28.58
2022-10-13T07:40:16.498Z,29.80
2022-10-13T07:40:57.436Z,32.25
2022-10-13T07:41:37.532Z,28.64
2022-10-13T07:42:17.467Z,29.89
2022-10-13T07:42:57.588Z,27.90
2022-10-13T07:43:38.499Z,25.25
2022-10-13T07:44:18.757Z,27.04
2022-10-13T07:44:59.421Z,26.60
2022-10-13T07:45:39.709Z,28.14
2022-10-13T07:46:21.436Z,27.33
2022-10-13T07:47:01.553Z,27.00
2022-10-13T07:47:41.445Z,25.26
2022-10-13T07:49:03.425Z,24.05
2022-10-13T07:49:43.495Z,24.42
2022-10-13T07:50:24.449Z,24.61
2022-10-13T07:51:04.850Z,23.81
2022-10-13T07:51:45.410Z,25.65
2022-10-13T07:52:25.480Z,28.00
2022-10-13T07:53:06.478Z,24.46
2022-10-13T07:53:48.672Z,24.26
2022-10-13T07:54:29.406Z,24.02
2022-10-13T07:55:09.479Z,26.51
2022-10-13T07:55:49.441Z,27.30
2022-10-13T07:56:29.491Z,23.65
2022-10-13T07:57:10.434Z,25.00
2022-10-13T07:57:50.538Z,24.63
2022-10-13T07:58:30.520Z,24.31
2022-10-13T07:59:10.477Z,24.33
2022-10-13T07:59:51.396Z,22.90
2022-10-13T08:00:31.471Z,22.88
2022-10-13T08:02:39.074Z,25.74
2022-10-13T08:03:26.466Z,23.36
2022-10-13T08:04:07.449Z,21.56
2022-10-13T08:04:47.493Z,22.91
2022-10-13T08:05:27.401Z,22.50
2022-10-13T08:06:09.481Z,25.10
2022-10-13T08:06:49.418Z,24.92
2022-10-13T08:07:30.464Z,21.33
2022-10-13T08:08:10.404Z,23.29
2022-10-13T08:08:50.496Z,24.89
2022-10-13T08:09:31.447Z,24.66
2022-10-13T08:10:12.798Z,25.14
2022-10-13T08:11:39.479Z,23.83
2022-10-13T08:12:19.533Z,24.80
2022-10-13T08:13:00.505Z,25.13
2022-10-13T08:13:40.383Z,24.88
2022-10-13T08:14:20.523Z,23.84
2022-10-13T08:15:03.453Z,23.50
2022-10-13T08:15:48.597Z,22.88
2022-10-13T08:16:29.408Z,24.63
2022-10-13T08:17:09.459Z,24.96
2022-10-13T08:17:49.386Z,22.64
2022-10-13T08:18:30.505Z,24.23
2022-10-13T08:19:10.388Z,27.56
2022-10-13T08:19:50.468Z,25.45
2022-10-13T08:20:40.912Z,24.48
2022-10-13T08:21:57.168Z,24.69
2022-10-13T08:22:28.353Z,26.41
2022-10-13T08:23:08.505Z,24.36
2022-10-13T08:23:50.398Z,24.25
2022-10-13T08:24:30.731Z,24.55
2022-10-13T08:25:10.387Z,23.16
2022-10-13T08:25:51.408Z,22.35
2022-10-13T08:26:31.456Z,22.15
2022-10-13T08:27:05.107Z,22.61
2022-10-13T08:27:51.032Z,22.69
2022-10-13T08:28:29.547Z,23.61
2022-10-13T08:30:04.530Z,23.06
2022-10-13T08:30:38.585Z,23.16
2022-10-13T08:31:18.659Z,23.94
2022-10-13T08:32:00.703Z,24.61
2022-10-13T08:32:40.393Z,23.10
2022-10-13T08:33:21.450Z,22.88
2022-10-13T08:34:01.384Z,24.94
2022-10-13T08:34:42.517Z,23.51
2022-10-13T08:35:23.392Z,21.01
2022-10-13T08:36:03.473Z,22.11
2022-10-13T08:36:44.401Z,20.33
2022-10-13T08:37:26.446Z,21.15
2022-10-13T08:38:06.386Z,22.64
2022-10-13T08:38:46.455Z,21.96
2022-10-13T08:39:28.366Z,21.45
2022-10-13T08:40:09.442Z,22.02
2022-10-13T08:40:54.377Z,24.38
2022-10-13T08:41:51.522Z,24.94
2022-10-13T08:42:25.123Z,23.60
2022-10-13T08:43:12.394Z,26.76
2022-10-13T08:44:32.956Z,24.11
2022-10-13T08:45:40.888Z,24.31
2022-10-13T08:46:09.973Z,23.67
2022-10-13T08:47:14.464Z,24.30
2022-10-13T08:48:18.253Z,23.48
2022-10-13T08:49:05.352Z,24.05
2022-10-13T08:49:41.301Z,23.33
2022-10-13T08:50:33.348Z,22.17
2022-10-13T08:51:08.105Z,22.31
2022-10-13T08:51:56.401Z,22.83
2022-10-13T08:52:55.387Z,23.17
2022-10-13T08:53:40.454Z,24.00
2022-10-13T08:54:22.398Z,22.35
2022-10-13T08:55:03.451Z,20.96
2022-10-13T08:56:31.352Z,21.30
2022-10-13T08:57:12.413Z,22.39
2022-10-13T08:57:52.341Z,25.63
2022-10-13T08:58:40.461Z,27.91
2022-10-13T08:59:21.631Z,23.13
2022-10-13T08:59:55.101Z,22.27
2022-10-13T09:00:36.353Z,24.24
2022-10-13T09:01:18.473Z,22.76
2022-10-13T09:01:55.890Z,23.59
2022-10-13T09:02:38.348Z,21.71
2022-10-13T09:03:36.448Z,22.71
2022-10-13T09:04:33.387Z,23.91
2022-10-13T09:05:31.509Z,23.42
2022-10-13T09:06:38.368Z,21.00
2022-10-13T09:07:26.449Z,20.11
2022-10-13T09:08:06.370Z,19.01
2022-10-13T09:09:00.462Z,18.52
2022-10-13T09:09:40.398Z,20.16
2022-10-13T09:10:20.439Z,22.54